Airfield :
LOGIN :

Register | Disclaimer

   EN    FR    IT 

 










Legend :    VFR   Marginal VFR   IFR   Intensive IFR   Very Intensive IFR
Visi :
Ceiling :
>= 8 km
>= 3000ft
5 to 8 km
1000 to 3000 ft
1500m to 5 km
500 to 1000 ft
800 to 1500m
200 to 500 ft
< 800m
< 200 ft
Symbols :   Thunderstorms  Fog  Heavy snow  Heavy precipitations  Wind > 20 kt
SIGMETs :     Misc.  Thunderstorms  Icing  Turbulence  Mountain Waves  Volcanic Ashes






- Airport Elevation : 187 ft


ETNW - Wunstorf AB

CURRENT METAR :
  • 231920Z 12010KT 7000 FEW360 14/12 Q1012 WHT

EXPIRED METARs :
  • 231820Z 12008KT 9000 SCT330 14/12 Q1013 BLU+
  • 231720Z 10007KT 9999 FEW150 BKN300 14/12 Q1013 BLU+

TAF TAF ETNW
Valid from the 23 at 17:00 until the 24 at 17:00 UTC


231612Z 2317/2417 16005KT 9999 NSW SCT100 BKN130
BECMG 2319/2321 09005KT 3000 BR FEW020
TEMPO 2400/2408 VRB03KT 0500 FG OVC001
BECMG 2408/2410 11008KT 9999 NSW SCT015 SCT100 BY ETGL



MET'MAP, your aeronautical weather chart ! - Copyright ORBIFLY December 2007 - Disclaimer

ORBIFLY MET'MAP TEAM :

Programming & Development : Alexandra Zaïnal
Concept & Development : Baudouin d'Aumeries
Co-Development & Prog : Marc-Olivier Méhu
Technical & hardware support : Manuel Goepfert

Contact : metmap@orbifly.com




SOURCES & CREDITS :

   NOAA